Time;durP1;ratioP1;P1;durP2;ratioP2;P2;SDS_P1;SDS_P2;PMS_P1;PMS_P2;Temp;Humidity;BMP_temperature;BMP_pressure;BME280_temperature;BME280_humidity;BME280_pressure;Samples;Min_cycle;Max_cycle;Signal;HPM_P1;HPM_P2
2023/10/11 00:03:15;;;;;;;9.48;4.10;;;18.90;82.70;;;;;;5073231;28;20476;-77
2023/10/11 00:05:42;;;;;;;8.63;4.25;;;18.80;82.60;;;;;;5073238;28;20027;-77
2023/10/11 00:08:12;;;;;;;10.48;4.10;;;18.80;82.80;;;;;;5055567;28;20048;-77
2023/10/11 00:10:45;;;;;;;7.70;3.90;;;18.70;82.90;;;;;;5055571;28;20017;-77
2023/10/11 00:13:11;;;;;;;7.18;3.90;;;18.80;82.90;;;;;;5073202;28;20025;-77
2023/10/11 00:15:37;;;;;;;7.63;4.00;;;18.80;82.60;;;;;;5055489;28;20036;-77
2023/10/11 00:18:03;;;;;;;8.20;3.97;;;18.80;82.50;;;;;;5073110;28;20072;-77
2023/10/11 00:20:46;;;;;;;9.02;3.78;;;18.70;82.50;;;;;;5055465;28;20032;-77
2023/10/11 00:23:13;;;;;;;7.35;4.40;;;18.70;82.60;;;;;;5073160;28;20036;-77
2023/10/11 00:25:39;;;;;;;10.20;4.43;;;18.70;82.60;;;;;;5057761;28;20028;-77
2023/10/11 00:28:08;;;;;;;8.82;4.18;;;18.70;82.30;;;;;;5059558;28;20017;-77
2023/10/11 00:30:38;;;;;;;7.22;3.75;;;18.70;83.20;;;;;;5059451;28;20025;-77
2023/10/11 00:33:07;;;;;;;10.10;3.97;;;18.70;82.40;;;;;;5059458;28;20152;-77
2023/10/11 00:35:34;;;;;;;8.93;3.60;;;18.70;81.70;;;;;;5059264;28;20025;-77
2023/10/11 00:38:01;;;;;;;8.73;4.22;;;18.60;82.00;;;;;;5059500;28;20021;-77
2023/10/11 00:40:28;;;;;;;8.18;4.20;;;18.60;82.00;;;;;;5042858;28;20066;-77
2023/10/11 00:42:57;;;;;;;10.70;4.40;;;18.60;82.00;;;;;;5075793;28;20068;-77
2023/10/11 00:45:25;;;;;;;6.78;4.00;;;18.60;82.20;;;;;;5059183;28;20033;-77
2023/10/11 00:47:55;;;;;;;7.20;3.60;;;18.60;82.10;;;;;;5075931;28;20047;-77
2023/10/11 00:50:24;;;;;;;11.65;3.80;;;18.60;82.40;;;;;;5076800;28;20017;-77
2023/10/11 00:52:51;;;;;;;8.68;3.95;;;18.50;82.20;;;;;;5076743;28;20025;-77
2023/10/11 00:55:23;;;;;;;8.73;3.95;;;18.50;82.40;;;;;;5059004;28;20017;-77
2023/10/11 00:57:49;;;;;;;7.95;3.70;;;18.50;82.20;;;;;;5059064;28;20029;-77
2023/10/11 01:00:17;;;;;;;6.68;3.97;;;18.40;81.70;;;;;;5076619;28;20027;-76
2023/10/11 01:02:46;;;;;;;6.35;4.05;;;18.50;81.70;;;;;;5058915;28;20021;-77
2023/10/11 01:05:12;;;;;;;11.77;3.67;;;18.50;81.80;;;;;;5076422;28;20037;-77
2023/10/11 01:07:41;;;;;;;10.02;4.70;;;18.40;81.60;;;;;;5058809;28;20028;-77
2023/10/11 01:10:08;;;;;;;10.90;4.53;;;18.50;81.60;;;;;;5058809;28;20029;-77
2023/10/11 01:12:34;;;;;;;7.13;3.45;;;18.40;81.70;;;;;;5076310;28;20052;-77
2023/10/11 01:15:01;;;;;;;8.25;4.03;;;18.40;81.70;;;;;;5076430;28;20025;-77
2023/10/11 01:17:27;;;;;;;9.45;4.15;;;18.40;81.90;;;;;;5058549;28;20025;-77
2023/10/11 01:19:53;;;;;;;9.13;3.95;;;18.40;81.70;;;;;;5076216;28;20067;-77
2023/10/11 01:22:19;;;;;;;7.78;4.18;;;18.40;81.70;;;;;;5076175;28;20033;-77
2023/10/11 01:24:47;;;;;;;9.07;4.07;;;18.30;81.80;;;;;;5075183;28;20472;-77
2023/10/11 01:27:14;;;;;;;10.57;4.13;;;18.40;81.70;;;;;;5058400;28;20090;-77
2023/10/11 01:29:40;;;;;;;8.48;3.95;;;18.40;81.70;;;;;;5058497;28;20036;-77
2023/10/11 01:32:06;;;;;;;8.68;3.95;;;18.30;81.50;;;;;;5058282;28;20028;-77
2023/10/11 01:34:32;;;;;;;10.13;3.83;;;18.30;81.80;;;;;;5074960;28;20060;-77
2023/10/11 01:36:58;;;;;;;5.70;3.58;;;18.30;81.80;;;;;;5074543;28;20021;-77
2023/10/11 01:39:24;;;;;;;9.18;4.15;;;18.30;81.50;;;;;;5058181;28;20029;-77
2023/10/11 01:41:54;;;;;;;5.47;3.47;;;18.30;81.60;;;;;;5058269;28;20021;-77
2023/10/11 01:44:22;;;;;;;6.45;3.70;;;18.30;81.70;;;;;;5075926;28;20032;-77
2023/10/11 01:46:48;;;;;;;7.68;4.05;;;18.20;81.70;;;;;;5058045;28;20021;-77
2023/10/11 01:49:14;;;;;;;10.40;4.07;;;18.30;81.70;;;;;;5058029;28;20097;-77
2023/10/11 01:51:46;;;;;;;8.50;4.18;;;18.30;81.70;;;;;;5058250;28;20044;-77
2023/10/11 01:54:12;;;;;;;8.30;4.10;;;18.30;82.60;;;;;;5075620;28;20036;-77
2023/10/11 01:56:41;;;;;;;9.23;4.18;;;18.20;81.90;;;;;;5075543;28;20761;-77
2023/10/11 01:59:11;;;;;;;8.43;4.22;;;18.20;82.10;;;;;;5075472;28;20025;-77
2023/10/11 02:01:41;;;;;;;8.35;3.80;;;18.10;82.10;;;;;;5057794;28;20490;-77
2023/10/11 02:04:17;;;;;;;7.90;4.43;;;18.10;82.30;;;;;;5057627;28;20021;-77
2023/10/11 02:06:43;;;;;;;7.47;3.38;;;18.10;82.30;;;;;;5074522;28;20017;-77
2023/10/11 02:09:09;;;;;;;9.35;4.28;;;18.10;82.30;;;;;;5057664;28;20025;-77
2023/10/11 02:11:41;;;;;;;7.93;3.80;;;18.10;82.40;;;;;;5075273;28;20009;-77
2023/10/11 02:14:07;;;;;;;9.32;3.88;;;18.10;82.30;;;;;;5075272;28;20035;-77
2023/10/11 02:16:33;;;;;;;11.73;4.05;;;18.10;82.60;;;;;;5074381;28;20033;-77
2023/10/11 02:18:59;;;;;;;8.38;4.15;;;18.00;82.60;;;;;;5074196;28;20037;-77
2023/10/11 02:21:25;;;;;;;7.40;3.65;;;18.00;82.70;;;;;;5057432;28;20029;-77
2023/10/11 02:23:51;;;;;;;10.25;4.22;;;18.00;82.80;;;;;;5074968;28;20039;-77
2023/10/11 02:26:16;;;;;;;8.73;3.95;;;18.00;82.90;;;;;;5074962;28;20029;-77
2023/10/11 02:28:44;;;;;;;8.93;4.18;;;18.00;83.10;;;;;;5040773;28;20033;-77
2023/10/11 02:31:13;;;;;;;8.68;4.00;;;17.90;83.00;;;;;;5073951;28;20040;-77
2023/10/11 02:33:39;;;;;;;6.88;3.85;;;17.90;83.10;;;;;;5074883;28;20031;-77
2023/10/11 02:36:09;;;;;;;8.00;4.55;;;17.90;83.10;;;;;;5057150;28;20027;-77
2023/10/11 02:38:47;;;;;;;7.80;3.65;;;18.00;83.10;;;;;;5057751;28;20025;-77
2023/10/11 02:41:13;;;;;;;8.65;3.88;;;18.00;83.10;;;;;;5057260;28;20450;-77
2023/10/11 02:43:48;;;;;;;7.22;4.38;;;17.90;83.10;;;;;;5074394;28;20055;-77
2023/10/11 02:46:15;;;;;;;8.45;4.13;;;17.80;83.40;;;;;;5056924;28;20025;-77
2023/10/11 02:48:48;;;;;;;9.20;4.20;;;17.80;83.70;;;;;;5056458;28;20029;-77
2023/10/11 02:51:17;;;;;;;8.10;4.25;;;17.80;83.80;;;;;;5073730;28;20029;-77
2023/10/11 02:53:43;;;;;;;7.47;4.35;;;17.80;83.90;;;;;;5073541;28;20033;-77
2023/10/11 02:56:10;;;;;;;10.57;4.38;;;17.60;84.30;;;;;;5040283;28;20040;-77
2023/10/11 02:58:39;;;;;;;8.65;4.40;;;17.60;84.30;;;;;;5074341;28;20032;-77
2023/10/11 03:01:10;;;;;;;8.38;4.45;;;17.60;84.50;;;;;;5056740;28;20047;-77
2023/10/11 03:03:38;;;;;;;7.68;4.30;;;17.50;84.60;;;;;;5056587;28;20036;-77
2023/10/11 03:06:07;;;;;;;8.32;4.63;;;17.50;84.60;;;;;;5040307;28;20017;-77
2023/10/11 03:08:33;;;;;;;9.10;4.55;;;17.50;84.80;;;;;;5073333;28;20028;-77
2023/10/11 03:11:04;;;;;;;9.38;4.00;;;17.60;84.70;;;;;;5056436;28;20051;-77
2023/10/11 03:13:31;;;;;;;8.45;4.60;;;17.60;84.60;;;;;;5074146;28;20021;-77
2023/10/11 03:15:58;;;;;;;9.07;4.25;;;17.60;84.60;;;;;;5073178;28;20029;-77
2023/10/11 03:18:31;;;;;;;9.10;4.90;;;17.50;84.60;;;;;;5073977;28;20025;-77
2023/10/11 03:21:16;;;;;;;7.60;4.43;;;17.50;84.90;;;;;;5056347;28;20036;-77
2023/10/11 03:23:47;;;;;;;8.05;4.78;;;17.30;85.30;;;;;;5073943;28;20044;-77
2023/10/11 03:26:18;;;;;;;8.48;5.13;;;17.30;85.40;;;;;;5056230;28;20098;-77
2023/10/11 03:28:59;;;;;;;9.43;4.70;;;17.30;85.50;;;;;;5056136;28;20088;-77
2023/10/11 03:31:29;;;;;;;8.85;4.30;;;17.30;85.40;;;;;;5056115;28;20047;-77
2023/10/11 03:34:00;;;;;;;9.57;4.53;;;17.30;85.50;;;;;;5056122;28;20025;-77
2023/10/11 03:36:34;;;;;;;9.48;4.95;;;17.30;85.70;;;;;;5073791;28;20032;-77
2023/10/11 03:39:08;;;;;;;11.18;4.60;;;17.30;85.70;;;;;;5056017;28;20021;-77
2023/10/11 03:41:44;;;;;;;9.85;4.63;;;17.20;85.80;;;;;;5055994;28;20484;-77
2023/10/11 03:44:10;;;;;;;7.75;4.32;;;17.20;86.10;;;;;;5055604;28;20072;-77
2023/10/11 03:46:36;;;;;;;12.25;4.80;;;17.20;86.20;;;;;;5039359;28;20036;-77
2023/10/11 03:49:32;;;;;;;10.20;4.90;;;17.20;86.20;;;;;;5055807;28;20033;-77
2023/10/11 03:51:48;;;;;;;12.20;4.72;;;17.20;86.20;;;;;;5073272;28;20396;-77
2023/10/11 03:54:23;;;;;;;10.57;5.18;;;17.10;86.30;;;;;;5039180;28;20032;-77
2023/10/11 03:56:54;;;;;;;8.52;4.80;;;17.10;86.30;;;;;;5072627;28;20032;-77
2023/10/11 03:59:26;;;;;;;9.23;4.93;;;17.10;86.40;;;;;;5054977;28;20037;-77
2023/10/11 04:01:53;;;;;;;10.02;4.75;;;17.10;86.50;;;;;;5055623;28;20024;-77
2023/10/11 04:04:22;;;;;;;9.82;4.60;;;17.10;86.40;;;;;;5055542;28;20032;-77
2023/10/11 04:06:51;;;;;;;9.20;4.82;;;17.00;86.60;;;;;;5055659;28;20041;-77
2023/10/11 04:09:22;;;;;;;11.57;5.15;;;17.00;87.00;;;;;;5073188;28;20163;-77
2023/10/11 04:11:54;;;;;;;7.90;4.65;;;16.90;87.00;;;;;;5055552;28;20392;-77
2023/10/11 04:14:45;;;;;;;12.15;4.93;;;17.00;87.00;;;;;;5039898;28;20059;-77
2023/10/11 04:17:49;;;;;;;8.55;4.55;;;16.90;87.10;;;;;;5072288;28;20112;-77
2023/10/11 04:20:19;;;;;;;9.85;4.80;;;16.90;87.30;;;;;;5068962;28;20032;-77
2023/10/11 04:22:57;;;;;;;10.05;5.53;;;16.80;87.50;;;;;;5072478;28;20059;-77
2023/10/11 04:25:23;;;;;;;11.02;6.13;;;16.80;87.70;;;;;;5073097;28;20032;-77
2023/10/11 04:27:58;;;;;;;11.27;5.38;;;16.80;87.90;;;;;;5055362;28;20009;-77
2023/10/11 04:30:40;;;;;;;9.80;5.07;;;16.70;88.00;;;;;;5055399;28;20036;-77
2023/10/11 04:33:10;;;;;;;8.70;4.70;;;16.70;88.40;;;;;;5055370;28;20053;-77
2023/10/11 04:35:42;;;;;;;9.20;4.85;;;16.60;88.60;;;;;;5055264;28;20021;-77
2023/10/11 04:38:10;;;;;;;10.40;5.22;;;16.60;88.70;;;;;;5073155;28;20021;-77
2023/10/11 04:40:49;;;;;;;9.65;4.55;;;16.60;88.70;;;;;;5072877;28;20023;-77
2023/10/11 04:43:23;;;;;;;9.60;4.85;;;16.70;88.70;;;;;;5051711;28;20055;-77
2023/10/11 04:45:51;;;;;;;9.60;5.18;;;16.70;88.70;;;;;;5036596;28;20081;-77
2023/10/11 04:48:36;;;;;;;11.13;5.15;;;16.60;88.60;;;;;;5051980;28;20025;-76
2023/10/11 04:51:08;;;;;;;10.00;4.82;;;16.70;88.70;;;;;;5052831;28;20025;-77
2023/10/11 04:53:54;;;;;;;8.88;5.82;;;16.70;88.80;;;;;;5051809;28;20031;-77
2023/10/11 04:59:09;;;;;;;10.63;5.15;;;16.60;89.20;;;;;;5052991;28;20086;-78
2023/10/11 05:04:26;;;;;;;11.15;5.03;;;16.50;89.20;;;;;;5051876;28;20097;-77
2023/10/11 05:06:53;;;;;;;14.30;5.15;;;16.50;89.60;;;;;;5051857;28;20037;-77
2023/10/11 05:11:58;;;;;;;11.27;5.40;;;16.50;90.30;;;;;;5055121;28;20093;-77
2023/10/11 05:14:30;;;;;;;9.95;5.32;;;16.40;90.00;;;;;;5055726;28;20030;-77
2023/10/11 05:17:16;;;;;;;8.32;4.75;;;16.40;90.00;;;;;;5039690;28;20128;-77
2023/10/11 05:19:57;;;;;;;9.60;5.10;;;16.40;90.10;;;;;;5055480;28;20057;-76
2023/10/11 05:23:11;;;;;;;10.07;4.97;;;16.40;90.20;;;;;;5055250;28;20025;-76
2023/10/11 05:27:49;;;;;;;9.55;5.10;;;16.40;90.20;;;;;;5055364;28;20097;-76
2023/10/11 05:52:02;;;;;;;10.45;4.45;;;16.50;90.20;;;;;;5075748;28;20087;-77
2023/10/11 05:54:34;;;;;;;10.40;5.72;;;16.50;90.20;;;;;;5057983;28;20021;-77
2023/10/11 05:57:03;;;;;;;11.57;5.20;;;16.50;90.20;;;;;;5074751;28;20089;-77
2023/10/11 05:59:37;;;;;;;10.90;4.97;;;16.40;90.30;;;;;;5074598;28;20476;-76
2023/10/11 06:02:13;;;;;;;11.95;5.32;;;16.40;90.30;;;;;;5057616;28;20021;-76
2023/10/11 06:04:42;;;;;;;12.13;5.25;;;16.40;90.30;;;;;;5074701;28;20025;-77
2023/10/11 06:07:13;;;;;;;12.10;5.43;;;16.40;90.40;;;;;;5057705;28;20033;-76
2023/10/11 06:09:43;;;;;;;8.40;4.80;;;16.40;90.50;;;;;;5057710;28;20029;-76
2023/10/11 06:12:22;;;;;;;9.93;5.10;;;16.30;90.60;;;;;;5057654;28;20021;-77
2023/10/11 06:14:52;;;;;;;13.38;5.35;;;16.30;90.60;;;;;;5057579;28;20021;-77
2023/10/11 06:18:05;;;;;;;10.70;5.72;;;16.30;90.70;;;;;;5075211;28;20032;-76
2023/10/11 06:20:38;;;;;;;12.57;5.90;;;16.30;90.80;;;;;;5061754;28;20025;-77
2023/10/11 06:23:02;;;;;;;11.65;5.30;;;16.30;90.80;;;;;;5073066;28;20033;-76
2023/10/11 06:28:15;;;;;;;11.95;5.15;;;16.40;90.60;;;;;;5060273;28;20044;-76
2023/10/11 06:30:51;;;;;;;9.27;5.30;;;16.30;91.00;;;;;;5073977;28;20084;-76
2023/10/11 06:33:21;;;;;;;11.57;5.47;;;16.40;91.10;;;;;;5057120;28;20025;-77
2023/10/11 06:35:49;;;;;;;11.75;5.55;;;16.30;91.20;;;;;;5074907;28;20017;-77
2023/10/11 06:38:15;;;;;;;11.20;5.93;;;16.30;91.30;;;;;;5074711;28;20013;-77
2023/10/11 06:40:48;;;;;;;12.63;6.93;;;16.30;91.40;;;;;;5074689;28;20032;-74
2023/10/11 06:43:15;;;;;;;11.77;6.38;;;16.30;91.50;;;;;;5074356;28;20064;-74
2023/10/11 06:45:41;;;;;;;13.20;5.95;;;16.30;91.50;;;;;;5056851;28;20089;-74
2023/10/11 06:48:13;;;;;;;12.32;5.68;;;16.30;91.60;;;;;;5074550;28;20086;-74
2023/10/11 06:50:39;;;;;;;13.32;6.30;;;16.30;91.60;;;;;;5074536;28;20028;-74
2023/10/11 06:53:09;;;;;;;10.80;6.00;;;16.30;91.70;;;;;;5056925;28;20021;-75
2023/10/11 06:55:36;;;;;;;14.45;6.72;;;16.30;91.80;;;;;;5056763;28;20021;-75
2023/10/11 06:58:09;;;;;;;9.98;5.72;;;16.30;91.90;;;;;;5074336;28;20036;-75
2023/10/11 07:00:45;;;;;;;12.32;6.05;;;16.30;92.00;;;;;;5056533;28;20035;-75
2023/10/11 07:05:59;;;;;;;15.05;6.38;;;16.30;92.40;;;;;;5074304;28;20029;-75
2023/10/11 07:08:32;;;;;;;12.68;6.45;;;16.30;92.60;;;;;;5074299;28;20017;-75
2023/10/11 07:11:16;;;;;;;13.10;5.72;;;16.30;92.50;;;;;;5074263;28;20041;-75
2023/10/11 07:13:49;;;;;;;12.85;6.50;;;16.40;92.50;;;;;;5072208;28;20052;-76
2023/10/11 07:16:28;;;;;;;11.05;5.50;;;16.50;92.60;;;;;;5056258;28;20032;-75
2023/10/11 07:18:56;;;;;;;11.43;6.05;;;16.50;92.50;;;;;;5056383;28;20033;-76
2023/10/11 07:21:26;;;;;;;12.13;5.93;;;16.50;92.50;;;;;;5056147;28;20124;-75
2023/10/11 07:28:52;;;;;;;11.73;6.00;;;16.70;92.30;;;;;;5073842;28;20060;-75
2023/10/11 07:31:31;;;;;;;13.88;6.82;;;16.80;92.30;;;;;;5056135;28;20036;-75
2023/10/11 07:34:05;;;;;;;13.15;5.95;;;16.80;92.30;;;;;;5055962;28;20028;-75
2023/10/11 07:36:31;;;;;;;12.23;6.00;;;16.90;92.50;;;;;;5040222;28;20033;-75
2023/10/11 07:39:00;;;;;;;11.75;5.78;;;17.00;92.30;;;;;;5072621;28;20029;-76
2023/10/11 07:41:28;;;;;;;14.80;7.00;;;17.00;92.30;;;;;;5056244;28;20096;-76
2023/10/11 07:44:01;;;;;;;18.52;7.43;;;17.10;92.30;;;;;;5073292;28;20052;-75
2023/10/11 07:46:33;;;;;;;;;;;17.10;92.20;;;;;;5073922;28;20021;-75
2023/10/11 07:49:01;;;;;;;13.13;6.18;;;17.20;92.20;;;;;;5055911;28;19911;-76
2023/10/11 07:51:34;;;;;;;12.40;6.20;;;17.20;92.00;;;;;;5055651;28;20033;-75
2023/10/11 07:54:06;;;;;;;14.48;6.25;;;17.30;91.90;;;;;;5055608;28;20021;-76
2023/10/11 07:56:35;;;;;;;13.50;6.60;;;17.30;92.20;;;;;;5073508;28;20048;-76
2023/10/11 07:59:07;;;;;;;11.90;5.93;;;17.40;92.20;;;;;;5055615;28;20056;-77
2023/10/11 08:01:47;;;;;;;12.52;7.03;;;17.40;92.00;;;;;;5072480;28;20021;-76
2023/10/11 08:07:49;;;;;;;12.77;5.72;;;17.50;91.80;;;;;;5073280;28;20059;-76
2023/10/11 08:10:52;;;;;;;12.43;6.25;;;17.60;91.90;;;;;;5072302;28;20021;-76
2023/10/11 08:13:26;;;;;;;14.10;7.03;;;17.70;91.90;;;;;;5070233;28;20029;-77
2023/10/11 08:16:05;;;;;;;13.50;6.28;;;17.80;91.80;;;;;;5055515;28;20040;-77
2023/10/11 08:18:32;;;;;;;15.25;6.80;;;17.80;92.00;;;;;;5052657;28;20021;-76
2023/10/11 08:21:00;;;;;;;12.57;6.55;;;17.90;91.80;;;;;;5055373;28;20021;-77
2023/10/11 08:23:50;;;;;;;11.18;6.13;;;18.00;91.80;;;;;;5039115;28;20051;-77
2023/10/11 08:26:24;;;;;;;15.50;7.20;;;18.00;91.70;;;;;;5055401;28;20021;-76
2023/10/11 08:28:51;;;;;;;13.63;6.28;;;18.10;91.70;;;;;;5073298;28;20025;-76
2023/10/11 08:31:35;;;;;;;15.25;7.40;;;18.10;91.60;;;;;;5055404;28;20018;-77
2023/10/11 08:34:28;;;;;;;18.92;7.10;;;18.10;91.60;;;;;;5072184;28;20025;-76
2023/10/11 08:36:56;;;;;;;12.75;6.68;;;18.20;91.60;;;;;;5052165;28;20071;-77
2023/10/11 08:39:35;;;;;;;15.23;6.50;;;18.30;92.00;;;;;;5055206;28;20056;-76
2023/10/11 08:42:10;;;;;;;15.27;7.00;;;18.30;92.00;;;;;;5055444;28;20025;-77
2023/10/11 08:44:36;;;;;;;15.43;8.23;;;18.40;91.80;;;;;;5055160;28;20051;-76
2023/10/11 08:47:06;;;;;;;14.20;6.63;;;18.40;91.80;;;;;;5058063;28;20092;-76
2023/10/11 08:49:40;;;;;;;14.23;6.55;;;18.50;91.70;;;;;;5059167;28;20028;-76
2023/10/11 08:52:11;;;;;;;19.30;6.80;;;18.60;91.80;;;;;;5059102;28;20017;-76
2023/10/11 08:54:38;;;;;;;20.38;7.20;;;18.60;91.50;;;;;;5059042;28;20063;-77
2023/10/11 08:57:04;;;;;;;14.55;7.30;;;18.60;91.50;;;;;;5076594;28;20379;-77
2023/10/11 08:59:31;;;;;;;13.98;6.50;;;18.60;91.30;;;;;;5058951;28;20101;-75
2023/10/11 09:02:07;;;;;;;13.00;6.82;;;18.70;91.20;;;;;;5076556;28;20048;-74
2023/10/11 09:04:35;;;;;;;15.65;7.82;;;18.80;91.20;;;;;;5076464;28;20029;-74
2023/10/11 09:07:02;;;;;;;17.70;7.63;;;18.90;91.30;;;;;;5076468;28;20021;-74
2023/10/11 09:09:54;;;;;;;13.73;6.45;;;19.00;91.20;;;;;;5058862;28;20071;-74
2023/10/11 09:12:23;;;;;;;18.08;7.65;;;19.00;91.00;;;;;;5076509;28;20043;-74
2023/10/11 09:15:03;;;;;;;13.80;6.65;;;19.00;90.80;;;;;;5076357;28;20040;-74
2023/10/11 09:17:39;;;;;;;14.52;7.50;;;19.00;90.80;;;;;;5076320;28;20059;-74
2023/10/11 09:20:40;;;;;;;15.85;7.50;;;19.00;91.00;;;;;;5058497;28;20128;-80
2023/10/11 09:23:01;;;;;;;13.77;7.60;;;18.90;90.90;;;;;;5075502;28;20036;-81
2023/10/11 09:25:57;;;;;;;13.90;7.75;;;18.90;91.20;;;;;;4998613;28;20049;-74
2023/10/11 09:28:40;;;;;;;19.67;8.25;;;18.90;91.30;;;;;;5014758;28;20038;-74
2023/10/11 09:31:15;;;;;;;15.68;8.32;;;19.00;91.20;;;;;;5014927;28;20058;-74
2023/10/11 09:33:50;;;;;;;17.30;9.52;;;18.90;91.40;;;;;;5014713;28;20078;-74
2023/10/11 09:36:19;;;;;;;18.45;9.35;;;18.90;91.60;;;;;;5014665;28;20027;-75
2023/10/11 09:38:54;;;;;;;17.48;9.48;;;18.90;91.60;;;;;;5014643;28;20019;-74
2023/10/11 09:41:25;;;;;;;22.10;9.38;;;18.80;92.00;;;;;;5014693;28;20113;-74
2023/10/11 09:43:57;;;;;;;19.38;9.90;;;18.80;92.00;;;;;;5014245;28;20046;-76
2023/10/11 09:46:29;;;;;;;22.70;11.45;;;18.80;92.10;;;;;;4998178;28;20089;-76
2023/10/11 09:48:56;;;;;;;22.55;10.80;;;18.90;92.10;;;;;;5014604;28;20023;-77
2023/10/11 09:51:24;;;;;;;22.30;10.82;;;18.80;92.30;;;;;;5014434;28;20030;-77
2023/10/11 09:53:50;;;;;;;20.42;10.90;;;18.70;92.80;;;;;;4998024;28;20030;-77
2023/10/11 09:56:54;;;;;;;20.25;11.75;;;18.80;92.40;;;;;;5024273;28;20064;-77
2023/10/11 10:00:07;;;;;;;19.45;10.65;;;18.70;92.60;;;;;;5073711;28;20055;-77
2023/10/11 10:02:35;;;;;;;22.33;11.57;;;18.70;92.90;;;;;;5057345;28;20025;-76
2023/10/11 10:05:07;;;;;;;22.45;11.57;;;18.70;92.80;;;;;;5057206;28;20025;-77
2023/10/11 10:10:07;;;;;;;23.85;11.30;;;18.60;93.40;;;;;;5058911;28;20264;-77
2023/10/11 10:13:11;;;;;;;23.17;12.35;;;18.60;93.50;;;;;;5057732;28;20029;-77
2023/10/11 10:15:47;;;;;;;22.38;11.57;;;18.60;93.50;;;;;;5075134;28;20036;-77
2023/10/11 10:18:19;;;;;;;22.85;12.95;;;18.60;94.00;;;;;;5056674;28;20033;-77
2023/10/11 10:20:46;;;;;;;26.88;13.35;;;18.60;94.20;;;;;;5057227;28;20070;-78
2023/10/11 10:23:15;;;;;;;23.83;13.07;;;18.60;94.10;;;;;;5057348;28;20108;-77
2023/10/11 10:26:11;;;;;;;26.17;13.13;;;18.60;94.20;;;;;;5057465;28;20487;-77
2023/10/11 10:28:36;;;;;;;24.02;12.57;;;18.70;94.10;;;;;;5057210;28;20044;-77
2023/10/11 10:31:19;;;;;;;24.70;12.68;;;18.60;94.20;;;;;;5057379;28;20029;-77
2023/10/11 10:33:52;;;;;;;23.63;12.20;;;18.60;94.40;;;;;;5058883;28;20034;-77
2023/10/11 10:36:21;;;;;;;26.20;12.80;;;18.60;94.40;;;;;;5074871;28;20029;-77
2023/10/11 10:41:37;;;;;;;23.40;12.55;;;18.50;95.00;;;;;;5074811;28;20029;-76
2023/10/11 10:44:08;;;;;;;27.95;13.93;;;18.50;94.80;;;;;;5037036;28;20053;-77
2023/10/11 10:46:53;;;;;;;26.95;13.95;;;18.50;94.80;;;;;;5054711;28;20025;-76
2023/10/11 10:49:20;;;;;;;25.65;12.73;;;18.60;95.30;;;;;;5053727;28;20022;-78
2023/10/11 10:51:51;;;;;;;27.38;13.60;;;18.50;95.10;;;;;;5054574;28;20029;-77
2023/10/11 10:54:25;;;;;;;29.50;12.93;;;18.60;94.90;;;;;;5053498;28;20037;-78
2023/10/11 10:56:54;;;;;;;25.75;12.68;;;18.60;94.90;;;;;;5038166;28;20060;-78
2023/10/11 10:59:21;;;;;;;24.23;12.73;;;18.70;94.90;;;;;;5054439;28;20093;-77
2023/10/11 11:01:50;;;;;;;25.52;13.27;;;18.70;94.90;;;;;;5054420;28;20025;-77
2023/10/11 11:04:20;;;;;;;27.40;13.50;;;18.70;94.70;;;;;;5036961;28;20028;-77
2023/10/11 11:06:48;;;;;;;22.60;13.00;;;18.80;94.50;;;;;;5053250;28;20075;-77
2023/10/11 11:09:19;;;;;;;27.08;13.35;;;18.80;94.60;;;;;;5053083;28;20036;-77
2023/10/11 11:11:51;;;;;;;28.80;14.43;;;18.80;94.60;;;;;;5053283;28;20018;-77
2023/10/11 11:14:19;;;;;;;25.93;13.07;;;18.70;94.80;;;;;;5053141;28;20032;-77
2023/10/11 11:16:54;;;;;;;30.50;13.75;;;18.80;94.80;;;;;;5054071;28;20288;-77
2023/10/11 11:19:25;;;;;;;26.27;12.88;;;18.80;95.00;;;;;;5053123;28;20097;-77
2023/10/11 11:22:12;;;;;;;27.52;13.52;;;18.80;95.10;;;;;;5037390;28;20041;-77
2023/10/11 11:24:41;;;;;;;27.27;13.57;;;18.70;95.10;;;;;;5053981;28;20033;-78
2023/10/11 11:27:25;;;;;;;28.00;13.20;;;18.70;95.20;;;;;;5052910;28;20081;-77
2023/10/11 11:30:02;;;;;;;25.52;13.40;;;18.70;95.30;;;;;;5054087;28;20014;-77
2023/10/11 11:32:45;;;;;;;26.27;13.23;;;18.70;95.20;;;;;;5053213;28;20025;-77
2023/10/11 11:35:31;;;;;;;27.95;13.10;;;18.70;95.20;;;;;;5052959;28;20025;-77
2023/10/11 11:38:05;;;;;;;28.48;12.80;;;18.70;95.30;;;;;;5053155;28;20025;-77
2023/10/11 11:40:36;;;;;;;24.23;13.30;;;18.80;95.60;;;;;;5053765;28;20052;-78
2023/10/11 11:43:05;;;;;;;28.40;14.48;;;18.70;95.40;;;;;;5052662;28;20049;-77
2023/10/11 11:45:35;;;;;;;25.88;12.70;;;18.70;95.30;;;;;;5036321;28;20033;-77
2023/10/11 11:48:03;;;;;;;27.48;13.00;;;18.70;95.50;;;;;;5052664;28;20025;-78
2023/10/11 11:50:37;;;;;;;26.48;13.07;;;18.70;95.50;;;;;;5053550;28;20022;-77
2023/10/11 11:53:03;;;;;;;25.58;13.55;;;18.70;95.60;;;;;;5053530;28;20033;-77
2023/10/11 11:55:29;;;;;;;27.52;13.15;;;18.70;95.50;;;;;;5036066;28;20059;-78
2023/10/11 11:57:56;;;;;;;27.92;13.95;;;18.70;95.50;;;;;;5035994;28;20060;-78
2023/10/11 12:02:55;;;;;;;27.73;13.75;;;18.80;95.70;;;;;;5053448;28;20029;-77
2023/10/11 12:05:21;;;;;;;26.52;12.80;;;18.80;96.10;;;;;;5053290;28;20033;-77
2023/10/11 12:07:50;;;;;;;29.10;14.25;;;18.80;95.50;;;;;;5053307;28;20024;-77
2023/10/11 12:10:25;;;;;;;20.75;12.48;;;18.90;95.90;;;;;;5035780;28;20021;-77
2023/10/11 12:12:55;;;;;;;28.17;12.43;;;18.90;95.60;;;;;;5037082;28;20071;-77
2023/10/11 12:15:21;;;;;;;29.25;13.60;;;19.00;95.50;;;;;;5052207;28;20029;-77
2023/10/11 12:17:53;;;;;;;25.80;13.52;;;19.10;95.60;;;;;;5052164;28;20021;-78
2023/10/11 12:20:19;;;;;;;27.58;12.18;;;19.10;95.50;;;;;;5051798;28;20479;-77
2023/10/11 12:22:45;;;;;;;23.58;11.98;;;19.10;95.30;;;;;;5053105;28;20026;-77
2023/10/11 12:25:12;;;;;;;22.13;10.60;;;19.10;95.20;;;;;;5052063;28;20022;-77
2023/10/11 12:27:40;;;;;;;22.27;11.95;;;19.10;95.10;;;;;;5053070;28;20022;-77
2023/10/11 12:30:19;;;;;;;22.52;11.95;;;19.10;95.00;;;;;;5035946;28;20025;-77
2023/10/11 12:32:46;;;;;;;25.13;12.55;;;19.10;95.10;;;;;;5052056;28;20546;-77
2023/10/11 12:35:12;;;;;;;23.00;11.32;;;19.10;95.40;;;;;;5035512;28;20064;-77
2023/10/11 12:37:40;;;;;;;23.27;10.48;;;19.10;95.20;;;;;;5051983;28;20025;-77
2023/10/11 12:40:13;;;;;;;23.40;11.95;;;19.10;95.20;;;;;;5035920;28;20033;-78
2023/10/11 12:42:39;;;;;;;23.38;11.55;;;19.10;95.00;;;;;;5053891;28;20034;-78
2023/10/11 12:45:08;;;;;;;22.92;11.52;;;19.10;95.00;;;;;;5055371;28;20025;-78
2023/10/11 12:47:36;;;;;;;22.63;10.88;;;19.20;95.10;;;;;;5039223;28;20056;-78
2023/10/11 12:50:03;;;;;;;20.30;10.95;;;19.30;95.00;;;;;;5038721;28;20533;-77
2023/10/11 12:52:32;;;;;;;20.83;10.93;;;19.40;95.00;;;;;;5038838;28;20025;-77
2023/10/11 12:55:00;;;;;;;21.23;10.55;;;19.40;94.60;;;;;;5072810;28;20364;-77
2023/10/11 12:57:28;;;;;;;20.23;10.55;;;19.50;94.70;;;;;;5055101;28;20032;-78
2023/10/11 12:59:54;;;;;;;21.98;10.98;;;19.70;94.90;;;;;;5055157;28;20106;-78
2023/10/11 13:02:21;;;;;;;19.20;10.05;;;19.80;94.50;;;;;;5038621;28;20017;-78
2023/10/11 13:04:48;;;;;;;22.83;10.38;;;19.90;93.90;;;;;;5038624;28;20029;-78
2023/10/11 13:07:13;;;;;;;18.92;9.90;;;19.90;93.80;;;;;;5055017;28;20017;-78
2023/10/11 13:09:40;;;;;;;19.33;10.30;;;20.00;93.90;;;;;;5038446;28;20501;-77
2023/10/11 13:12:07;;;;;;;15.65;9.55;;;19.90;93.50;;;;;;5072664;28;20017;-77
2023/10/11 13:14:35;;;;;;;20.48;10.38;;;20.00;93.60;;;;;;5072738;28;20101;-77
2023/10/11 13:17:04;;;;;;;20.00;10.38;;;20.10;93.70;;;;;;5054932;28;20025;-78
2023/10/11 13:19:31;;;;;;;23.30;9.82;;;20.10;93.40;;;;;;5072613;28;20089;-79
2023/10/11 13:21:57;;;;;;;23.52;10.48;;;20.10;93.50;;;;;;5071581;28;20036;-78
2023/10/11 13:24:24;;;;;;;17.63;10.80;;;20.10;93.30;;;;;;5038365;28;20036;-78
2023/10/11 13:26:52;;;;;;;22.67;10.05;;;20.20;93.30;;;;;;5054742;28;20022;-78
2023/10/11 13:29:18;;;;;;;20.05;10.13;;;20.20;93.50;;;;;;5055294;28;20029;-78
2023/10/11 13:31:53;;;;;;;18.00;9.10;;;20.40;93.20;;;;;;5039098;28;20080;-78
2023/10/11 13:34:19;;;;;;;17.35;8.75;;;20.50;93.30;;;;;;5058366;28;20041;-78
2023/10/11 13:36:45;;;;;;;18.55;10.40;;;20.50;92.60;;;;;;5058126;28;20130;-78
2023/10/11 13:39:26;;;;;;;16.85;9.02;;;20.60;92.20;;;;;;5041828;28;20173;-77
2023/10/11 13:42:09;;;;;;;17.60;8.68;;;20.60;92.00;;;;;;5076002;28;20407;-77
2023/10/11 13:44:39;;;;;;;18.25;9.55;;;20.70;92.10;;;;;;5075601;28;20083;-78
2023/10/11 13:47:04;;;;;;;17.10;9.82;;;20.60;91.60;;;;;;5058111;28;20051;-78
2023/10/11 13:49:33;;;;;;;18.45;9.45;;;20.60;91.80;;;;;;5058068;28;20069;-78
2023/10/11 13:52:03;;;;;;;19.00;9.50;;;20.70;91.90;;;;;;5074872;28;20043;-77
2023/10/11 13:54:45;;;;;;;19.02;9.82;;;20.90;92.00;;;;;;5075741;28;20033;-78
2023/10/11 13:57:18;;;;;;;20.13;10.15;;;21.10;91.90;;;;;;5058077;28;20096;-78